sensor_id;sensor_type;location;lat;lon;timestamp;P1;durP1;ratioP1;P2;durP2;ratioP2
35558;SDS011;21661;50.794;-1.066;2024-02-21T00:00:47;5.20;;;1.40;;
35558;SDS011;21661;50.794;-1.066;2024-02-21T00:03:13;6.45;;;1.65;;
35558;SDS011;21661;50.794;-1.066;2024-02-21T00:05:38;5.38;;;1.38;;
35558;SDS011;21661;50.794;-1.066;2024-02-21T00:08:04;4.55;;;1.10;;
35558;SDS011;21661;50.794;-1.066;2024-02-21T00:10:30;5.07;;;1.10;;
35558;SDS011;21661;50.794;-1.066;2024-02-21T00:13:00;4.78;;;1.55;;
35558;SDS011;21661;50.794;-1.066;2024-02-21T00:15:25;5.00;;;1.00;;
35558;SDS011;21661;50.794;-1.066;2024-02-21T00:17:51;6.05;;;1.45;;
35558;SDS011;21661;50.794;-1.066;2024-02-21T00:20:17;5.65;;;1.00;;
35558;SDS011;21661;50.794;-1.066;2024-02-21T00:22:43;5.82;;;1.00;;
35558;SDS011;21661;50.794;-1.066;2024-02-21T00:25:09;5.38;;;1.20;;
35558;SDS011;21661;50.794;-1.066;2024-02-21T00:27:35;5.07;;;1.30;;
35558;SDS011;21661;50.794;-1.066;2024-02-21T00:30:00;7.40;;;0.93;;
35558;SDS011;21661;50.794;-1.066;2024-02-21T00:32:26;6.22;;;1.25;;
35558;SDS011;21661;50.794;-1.066;2024-02-21T00:34:52;4.47;;;1.13;;
35558;SDS011;21661;50.794;-1.066;2024-02-21T00:37:18;5.03;;;1.17;;
35558;SDS011;21661;50.794;-1.066;2024-02-21T00:39:43;5.35;;;0.98;;
35558;SDS011;21661;50.794;-1.066;2024-02-21T00:42:09;4.32;;;1.00;;
35558;SDS011;21661;50.794;-1.066;2024-02-21T00:44:34;4.63;;;0.93;;
35558;SDS011;21661;50.794;-1.066;2024-02-21T00:47:00;5.40;;;0.95;;
35558;SDS011;21661;50.794;-1.066;2024-02-21T00:49:26;5.93;;;1.80;;
35558;SDS011;21661;50.794;-1.066;2024-02-21T00:51:51;4.38;;;0.90;;
35558;SDS011;21661;50.794;-1.066;2024-02-21T00:54:17;7.05;;;1.10;;
35558;SDS011;21661;50.794;-1.066;2024-02-21T00:56:43;3.55;;;0.88;;
35558;SDS011;21661;50.794;-1.066;2024-02-21T00:59:08;8.10;;;1.58;;
35558;SDS011;21661;50.794;-1.066;2024-02-21T01:01:34;3.70;;;0.93;;
35558;SDS011;21661;50.794;-1.066;2024-02-21T01:03:59;4.55;;;1.02;;
35558;SDS011;21661;50.794;-1.066;2024-02-21T01:06:25;5.15;;;1.13;;
35558;SDS011;21661;50.794;-1.066;2024-02-21T01:08:51;4.60;;;1.27;;
35558;SDS011;21661;50.794;-1.066;2024-02-21T01:11:17;4.78;;;0.75;;
35558;SDS011;21661;50.794;-1.066;2024-02-21T01:13:42;3.83;;;1.10;;
35558;SDS011;21661;50.794;-1.066;2024-02-21T01:16:09;3.97;;;0.90;;
35558;SDS011;21661;50.794;-1.066;2024-02-21T01:18:34;6.13;;;1.08;;
35558;SDS011;21661;50.794;-1.066;2024-02-21T01:21:04;4.57;;;0.70;;
35558;SDS011;21661;50.794;-1.066;2024-02-21T01:23:32;4.32;;;0.80;;
35558;SDS011;21661;50.794;-1.066;2024-02-21T01:25:59;4.97;;;1.05;;
35558;SDS011;21661;50.794;-1.066;2024-02-21T01:28:24;5.13;;;1.10;;
35558;SDS011;21661;50.794;-1.066;2024-02-21T01:30:50;3.95;;;1.40;;
35558;SDS011;21661;50.794;-1.066;2024-02-21T01:33:16;6.80;;;1.23;;
35558;SDS011;21661;50.794;-1.066;2024-02-21T01:35:42;4.53;;;0.77;;
35558;SDS011;21661;50.794;-1.066;2024-02-21T01:38:07;4.57;;;0.80;;
35558;SDS011;21661;50.794;-1.066;2024-02-21T01:40:33;6.05;;;1.27;;
35558;SDS011;21661;50.794;-1.066;2024-02-21T01:42:59;3.35;;;0.80;;
35558;SDS011;21661;50.794;-1.066;2024-02-21T01:45:24;7.10;;;1.08;;
35558;SDS011;21661;50.794;-1.066;2024-02-21T01:47:50;3.80;;;1.00;;
35558;SDS011;21661;50.794;-1.066;2024-02-21T01:50:16;5.43;;;0.90;;
35558;SDS011;21661;50.794;-1.066;2024-02-21T01:52:43;5.60;;;1.10;;
35558;SDS011;21661;50.794;-1.066;2024-02-21T01:55:14;4.78;;;1.33;;
35558;SDS011;21661;50.794;-1.066;2024-02-21T01:57:41;6.13;;;1.42;;
35558;SDS011;21661;50.794;-1.066;2024-02-21T02:00:10;3.83;;;0.70;;
35558;SDS011;21661;50.794;-1.066;2024-02-21T02:02:38;5.20;;;0.98;;
35558;SDS011;21661;50.794;-1.066;2024-02-21T02:05:05;5.25;;;1.08;;
35558;SDS011;21661;50.794;-1.066;2024-02-21T02:07:32;5.80;;;0.93;;
35558;SDS011;21661;50.794;-1.066;2024-02-21T02:09:58;3.35;;;0.77;;
35558;SDS011;21661;50.794;-1.066;2024-02-21T02:12:24;3.50;;;0.80;;
35558;SDS011;21661;50.794;-1.066;2024-02-21T02:14:59;4.22;;;0.70;;
35558;SDS011;21661;50.794;-1.066;2024-02-21T02:17:25;4.00;;;1.00;;
35558;SDS011;21661;50.794;-1.066;2024-02-21T02:19:51;5.55;;;1.65;;
35558;SDS011;21661;50.794;-1.066;2024-02-21T02:22:19;5.65;;;1.42;;
35558;SDS011;21661;50.794;-1.066;2024-02-21T02:24:47;4.22;;;1.10;;
35558;SDS011;21661;50.794;-1.066;2024-02-21T02:27:14;3.83;;;0.80;;
35558;SDS011;21661;50.794;-1.066;2024-02-21T02:29:39;4.45;;;0.85;;
35558;SDS011;21661;50.794;-1.066;2024-02-21T02:32:05;5.15;;;1.00;;
35558;SDS011;21661;50.794;-1.066;2024-02-21T02:34:31;6.00;;;1.08;;
35558;SDS011;21661;50.794;-1.066;2024-02-21T02:36:56;3.53;;;0.80;;
35558;SDS011;21661;50.794;-1.066;2024-02-21T02:39:22;4.28;;;0.98;;
35558;SDS011;21661;50.794;-1.066;2024-02-21T02:41:48;4.05;;;0.95;;
35558;SDS011;21661;50.794;-1.066;2024-02-21T02:44:13;6.25;;;1.50;;
35558;SDS011;21661;50.794;-1.066;2024-02-21T02:46:42;4.00;;;1.00;;
35558;SDS011;21661;50.794;-1.066;2024-02-21T02:49:08;6.30;;;1.20;;
35558;SDS011;21661;50.794;-1.066;2024-02-21T02:51:34;3.38;;;0.95;;
35558;SDS011;21661;50.794;-1.066;2024-02-21T02:53:59;4.75;;;0.82;;
35558;SDS011;21661;50.794;-1.066;2024-02-21T02:56:25;4.25;;;1.00;;
35558;SDS011;21661;50.794;-1.066;2024-02-21T02:58:50;8.02;;;1.05;;
35558;SDS011;21661;50.794;-1.066;2024-02-21T03:01:16;3.55;;;0.77;;
35558;SDS011;21661;50.794;-1.066;2024-02-21T03:03:42;7.18;;;0.95;;
35558;SDS011;21661;50.794;-1.066;2024-02-21T03:06:07;5.25;;;0.95;;
35558;SDS011;21661;50.794;-1.066;2024-02-21T03:08:33;6.97;;;0.77;;
35558;SDS011;21661;50.794;-1.066;2024-02-21T03:10:59;3.40;;;0.68;;
35558;SDS011;21661;50.794;-1.066;2024-02-21T03:13:25;5.50;;;0.80;;
35558;SDS011;21661;50.794;-1.066;2024-02-21T03:15:51;3.53;;;1.05;;
35558;SDS011;21661;50.794;-1.066;2024-02-21T03:18:16;4.60;;;0.90;;
35558;SDS011;21661;50.794;-1.066;2024-02-21T03:20:42;4.20;;;0.63;;
35558;SDS011;21661;50.794;-1.066;2024-02-21T03:23:08;3.70;;;0.90;;
35558;SDS011;21661;50.794;-1.066;2024-02-21T03:25:33;6.22;;;1.30;;
35558;SDS011;21661;50.794;-1.066;2024-02-21T03:27:59;5.50;;;0.85;;
35558;SDS011;21661;50.794;-1.066;2024-02-21T03:30:24;2.72;;;0.68;;
35558;SDS011;21661;50.794;-1.066;2024-02-21T03:32:50;5.47;;;0.77;;
35558;SDS011;21661;50.794;-1.066;2024-02-21T03:35:16;4.28;;;0.80;;
35558;SDS011;21661;50.794;-1.066;2024-02-21T03:37:42;4.80;;;0.88;;
35558;SDS011;21661;50.794;-1.066;2024-02-21T03:40:09;3.45;;;0.98;;
35558;SDS011;21661;50.794;-1.066;2024-02-21T03:42:35;5.82;;;1.10;;
35558;SDS011;21661;50.794;-1.066;2024-02-21T03:45:02;4.18;;;1.02;;
35558;SDS011;21661;50.794;-1.066;2024-02-21T03:47:28;4.50;;;0.75;;
35558;SDS011;21661;50.794;-1.066;2024-02-21T03:49:54;4.82;;;0.90;;
35558;SDS011;21661;50.794;-1.066;2024-02-21T03:52:19;3.83;;;1.02;;
35558;SDS011;21661;50.794;-1.066;2024-02-21T03:54:45;5.30;;;0.75;;
35558;SDS011;21661;50.794;-1.066;2024-02-21T03:57:11;3.03;;;0.75;;
35558;SDS011;21661;50.794;-1.066;2024-02-21T03:59:36;3.65;;;0.82;;
35558;SDS011;21661;50.794;-1.066;2024-02-21T04:02:05;4.60;;;0.80;;
35558;SDS011;21661;50.794;-1.066;2024-02-21T04:04:33;3.80;;;0.90;;
35558;SDS011;21661;50.794;-1.066;2024-02-21T04:07:00;4.40;;;0.73;;
35558;SDS011;21661;50.794;-1.066;2024-02-21T04:09:26;2.85;;;0.60;;
35558;SDS011;21661;50.794;-1.066;2024-02-21T04:11:51;4.70;;;0.75;;
35558;SDS011;21661;50.794;-1.066;2024-02-21T04:14:17;4.53;;;0.90;;
35558;SDS011;21661;50.794;-1.066;2024-02-21T04:16:43;5.18;;;0.93;;
35558;SDS011;21661;50.794;-1.066;2024-02-21T04:19:08;3.25;;;0.50;;
35558;SDS011;21661;50.794;-1.066;2024-02-21T04:21:34;5.88;;;0.90;;
35558;SDS011;21661;50.794;-1.066;2024-02-21T04:24:00;4.65;;;1.08;;
35558;SDS011;21661;50.794;-1.066;2024-02-21T04:26:27;4.55;;;0.80;;
35558;SDS011;21661;50.794;-1.066;2024-02-21T04:28:52;4.88;;;0.95;;
35558;SDS011;21661;50.794;-1.066;2024-02-21T04:31:18;5.45;;;0.60;;
35558;SDS011;21661;50.794;-1.066;2024-02-21T04:33:44;3.83;;;0.70;;
35558;SDS011;21661;50.794;-1.066;2024-02-21T04:36:09;3.40;;;0.80;;
35558;SDS011;21661;50.794;-1.066;2024-02-21T04:38:35;3.72;;;0.65;;
35558;SDS011;21661;50.794;-1.066;2024-02-21T04:41:01;4.13;;;0.80;;
35558;SDS011;21661;50.794;-1.066;2024-02-21T04:43:26;4.13;;;0.68;;
35558;SDS011;21661;50.794;-1.066;2024-02-21T04:45:52;3.30;;;0.60;;
35558;SDS011;21661;50.794;-1.066;2024-02-21T04:48:18;2.80;;;0.50;;
35558;SDS011;21661;50.794;-1.066;2024-02-21T04:50:45;3.25;;;0.60;;
35558;SDS011;21661;50.794;-1.066;2024-02-21T04:53:10;3.22;;;0.57;;
35558;SDS011;21661;50.794;-1.066;2024-02-21T04:55:36;3.03;;;0.60;;
35558;SDS011;21661;50.794;-1.066;2024-02-21T04:58:02;3.13;;;0.70;;
35558;SDS011;21661;50.794;-1.066;2024-02-21T05:00:27;2.97;;;0.55;;
35558;SDS011;21661;50.794;-1.066;2024-02-21T05:02:53;2.83;;;0.40;;
35558;SDS011;21661;50.794;-1.066;2024-02-21T05:05:19;2.03;;;0.60;;
35558;SDS011;21661;50.794;-1.066;2024-02-21T05:07:44;2.58;;;0.52;;
35558;SDS011;21661;50.794;-1.066;2024-02-21T05:10:10;2.40;;;0.50;;
35558;SDS011;21661;50.794;-1.066;2024-02-21T05:12:36;1.33;;;0.38;;
35558;SDS011;21661;50.794;-1.066;2024-02-21T05:15:02;1.52;;;0.30;;
35558;SDS011;21661;50.794;-1.066;2024-02-21T05:17:28;1.77;;;0.40;;
35558;SDS011;21661;50.794;-1.066;2024-02-21T05:19:54;1.83;;;0.43;;
35558;SDS011;21661;50.794;-1.066;2024-02-21T05:22:19;1.35;;;0.40;;
35558;SDS011;21661;50.794;-1.066;2024-02-21T05:24:45;2.40;;;0.30;;
35558;SDS011;21661;50.794;-1.066;2024-02-21T05:27:11;1.73;;;0.30;;
35558;SDS011;21661;50.794;-1.066;2024-02-21T05:29:36;2.42;;;0.30;;
35558;SDS011;21661;50.794;-1.066;2024-02-21T05:32:02;2.38;;;0.30;;
35558;SDS011;21661;50.794;-1.066;2024-02-21T05:34:28;2.63;;;0.30;;
35558;SDS011;21661;50.794;-1.066;2024-02-21T05:36:53;1.73;;;0.38;;
35558;SDS011;21661;50.794;-1.066;2024-02-21T05:39:19;1.65;;;0.40;;
35558;SDS011;21661;50.794;-1.066;2024-02-21T05:41:47;1.30;;;0.32;;
35558;SDS011;21661;50.794;-1.066;2024-02-21T05:44:13;2.22;;;0.40;;
35558;SDS011;21661;50.794;-1.066;2024-02-21T05:46:39;1.83;;;0.40;;
35558;SDS011;21661;50.794;-1.066;2024-02-21T05:49:04;2.28;;;0.38;;
35558;SDS011;21661;50.794;-1.066;2024-02-21T05:51:35;2.63;;;0.40;;
35558;SDS011;21661;50.794;-1.066;2024-02-21T05:54:00;2.35;;;0.57;;
35558;SDS011;21661;50.794;-1.066;2024-02-21T05:56:26;2.53;;;0.40;;
35558;SDS011;21661;50.794;-1.066;2024-02-21T05:58:52;3.25;;;0.60;;
35558;SDS011;21661;50.794;-1.066;2024-02-21T06:01:18;1.88;;;0.30;;
35558;SDS011;21661;50.794;-1.066;2024-02-21T06:03:43;1.25;;;0.20;;
35558;SDS011;21661;50.794;-1.066;2024-02-21T06:06:09;2.95;;;0.60;;
35558;SDS011;21661;50.794;-1.066;2024-02-21T06:08:34;2.65;;;0.45;;
35558;SDS011;21661;50.794;-1.066;2024-02-21T06:11:00;2.58;;;0.40;;
35558;SDS011;21661;50.794;-1.066;2024-02-21T06:13:26;3.15;;;0.45;;
35558;SDS011;21661;50.794;-1.066;2024-02-21T06:15:52;1.77;;;0.50;;
35558;SDS011;21661;50.794;-1.066;2024-02-21T06:18:18;1.20;;;0.30;;
35558;SDS011;21661;50.794;-1.066;2024-02-21T06:20:44;2.17;;;0.30;;
35558;SDS011;21661;50.794;-1.066;2024-02-21T06:23:11;1.88;;;0.45;;
35558;SDS011;21661;50.794;-1.066;2024-02-21T06:25:37;3.10;;;0.50;;
35558;SDS011;21661;50.794;-1.066;2024-02-21T06:28:03;2.33;;;0.35;;
35558;SDS011;21661;50.794;-1.066;2024-02-21T06:30:30;1.95;;;0.32;;
35558;SDS011;21661;50.794;-1.066;2024-02-21T06:32:55;2.45;;;0.60;;
35558;SDS011;21661;50.794;-1.066;2024-02-21T06:35:21;1.67;;;0.50;;
35558;SDS011;21661;50.794;-1.066;2024-02-21T06:37:49;2.15;;;0.40;;
35558;SDS011;21661;50.794;-1.066;2024-02-21T06:40:20;2.17;;;0.50;;
35558;SDS011;21661;50.794;-1.066;2024-02-21T06:42:47;2.15;;;0.30;;
35558;SDS011;21661;50.794;-1.066;2024-02-21T06:45:13;2.47;;;0.57;;
35558;SDS011;21661;50.794;-1.066;2024-02-21T06:47:38;4.15;;;0.57;;
35558;SDS011;21661;50.794;-1.066;2024-02-21T06:50:04;2.50;;;0.60;;
35558;SDS011;21661;50.794;-1.066;2024-02-21T06:52:30;2.88;;;0.50;;
35558;SDS011;21661;50.794;-1.066;2024-02-21T06:54:56;3.28;;;0.77;;
35558;SDS011;21661;50.794;-1.066;2024-02-21T06:57:22;2.25;;;0.38;;
35558;SDS011;21661;50.794;-1.066;2024-02-21T06:59:47;2.17;;;0.32;;
35558;SDS011;21661;50.794;-1.066;2024-02-21T07:02:13;2.83;;;0.55;;
35558;SDS011;21661;50.794;-1.066;2024-02-21T07:04:39;1.92;;;0.68;;
35558;SDS011;21661;50.794;-1.066;2024-02-21T07:07:04;2.10;;;0.40;;
35558;SDS011;21661;50.794;-1.066;2024-02-21T07:09:30;1.00;;;0.30;;
35558;SDS011;21661;50.794;-1.066;2024-02-21T07:11:57;3.75;;;0.52;;
35558;SDS011;21661;50.794;-1.066;2024-02-21T07:14:23;2.15;;;0.40;;
35558;SDS011;21661;50.794;-1.066;2024-02-21T07:16:49;3.05;;;0.55;;
35558;SDS011;21661;50.794;-1.066;2024-02-21T07:19:14;1.75;;;0.40;;
35558;SDS011;21661;50.794;-1.066;2024-02-21T07:21:40;2.35;;;0.50;;
35558;SDS011;21661;50.794;-1.066;2024-02-21T07:24:08;1.48;;;0.43;;
35558;SDS011;21661;50.794;-1.066;2024-02-21T07:26:34;2.63;;;0.40;;
35558;SDS011;21661;50.794;-1.066;2024-02-21T07:29:00;1.92;;;0.38;;
35558;SDS011;21661;50.794;-1.066;2024-02-21T07:31:26;2.30;;;0.55;;
35558;SDS011;21661;50.794;-1.066;2024-02-21T07:33:52;4.07;;;0.50;;
35558;SDS011;21661;50.794;-1.066;2024-02-21T07:36:27;2.20;;;0.40;;
35558;SDS011;21661;50.794;-1.066;2024-02-21T07:38:54;2.75;;;0.50;;
35558;SDS011;21661;50.794;-1.066;2024-02-21T07:41:20;1.90;;;0.45;;
35558;SDS011;21661;50.794;-1.066;2024-02-21T07:43:46;2.78;;;0.50;;
35558;SDS011;21661;50.794;-1.066;2024-02-21T07:46:13;2.05;;;0.40;;
35558;SDS011;21661;50.794;-1.066;2024-02-21T07:48:39;2.08;;;0.45;;
35558;SDS011;21661;50.794;-1.066;2024-02-21T07:51:04;2.47;;;0.40;;
35558;SDS011;21661;50.794;-1.066;2024-02-21T07:53:30;2.35;;;0.30;;
35558;SDS011;21661;50.794;-1.066;2024-02-21T07:55:56;1.67;;;0.30;;
35558;SDS011;21661;50.794;-1.066;2024-02-21T07:58:21;1.17;;;0.30;;
35558;SDS011;21661;50.794;-1.066;2024-02-21T08:00:47;2.10;;;0.50;;
35558;SDS011;21661;50.794;-1.066;2024-02-21T08:03:13;1.98;;;0.30;;
35558;SDS011;21661;50.794;-1.066;2024-02-21T08:05:40;2.35;;;0.40;;
35558;SDS011;21661;50.794;-1.066;2024-02-21T08:08:06;2.40;;;0.40;;
35558;SDS011;21661;50.794;-1.066;2024-02-21T08:10:33;3.15;;;0.52;;
35558;SDS011;21661;50.794;-1.066;2024-02-21T08:12:59;3.03;;;0.60;;
35558;SDS011;21661;50.794;-1.066;2024-02-21T08:15:24;1.65;;;0.40;;
35558;SDS011;21661;50.794;-1.066;2024-02-21T08:17:54;2.80;;;0.43;;
35558;SDS011;21661;50.794;-1.066;2024-02-21T08:20:24;2.83;;;0.50;;
35558;SDS011;21661;50.794;-1.066;2024-02-21T08:22:49;1.80;;;0.30;;
35558;SDS011;21661;50.794;-1.066;2024-02-21T08:25:15;1.55;;;0.32;;
35558;SDS011;21661;50.794;-1.066;2024-02-21T08:27:40;3.55;;;0.57;;
35558;SDS011;21661;50.794;-1.066;2024-02-21T08:30:06;2.63;;;0.40;;
35558;SDS011;21661;50.794;-1.066;2024-02-21T08:32:33;2.15;;;0.40;;
35558;SDS011;21661;50.794;-1.066;2024-02-21T08:35:00;2.00;;;0.35;;
35558;SDS011;21661;50.794;-1.066;2024-02-21T08:37:29;2.80;;;0.50;;
35558;SDS011;21661;50.794;-1.066;2024-02-21T08:39:55;1.98;;;0.30;;
35558;SDS011;21661;50.794;-1.066;2024-02-21T08:42:20;2.08;;;0.47;;
35558;SDS011;21661;50.794;-1.066;2024-02-21T08:44:46;2.42;;;0.38;;
35558;SDS011;21661;50.794;-1.066;2024-02-21T08:47:11;2.28;;;0.55;;
35558;SDS011;21661;50.794;-1.066;2024-02-21T08:49:37;2.70;;;0.35;;
35558;SDS011;21661;50.794;-1.066;2024-02-21T08:52:03;1.30;;;0.20;;
35558;SDS011;21661;50.794;-1.066;2024-02-21T08:54:30;1.70;;;0.38;;
35558;SDS011;21661;50.794;-1.066;2024-02-21T08:56:56;1.90;;;0.30;;
35558;SDS011;21661;50.794;-1.066;2024-02-21T08:59:21;1.90;;;0.40;;
35558;SDS011;21661;50.794;-1.066;2024-02-21T09:01:47;1.95;;;0.50;;
35558;SDS011;21661;50.794;-1.066;2024-02-21T09:04:13;2.55;;;0.32;;
35558;SDS011;21661;50.794;-1.066;2024-02-21T09:06:38;1.30;;;0.30;;
35558;SDS011;21661;50.794;-1.066;2024-02-21T09:09:07;2.08;;;0.30;;
35558;SDS011;21661;50.794;-1.066;2024-02-21T09:11:34;2.75;;;0.50;;
35558;SDS011;21661;50.794;-1.066;2024-02-21T09:14:00;2.75;;;0.43;;
35558;SDS011;21661;50.794;-1.066;2024-02-21T09:16:25;2.00;;;0.57;;
35558;SDS011;21661;50.794;-1.066;2024-02-21T09:18:51;1.50;;;0.40;;
35558;SDS011;21661;50.794;-1.066;2024-02-21T09:21:17;1.75;;;0.30;;
35558;SDS011;21661;50.794;-1.066;2024-02-21T09:23:43;1.98;;;0.40;;
35558;SDS011;21661;50.794;-1.066;2024-02-21T09:26:10;2.20;;;0.40;;
35558;SDS011;21661;50.794;-1.066;2024-02-21T09:28:39;2.35;;;0.40;;
35558;SDS011;21661;50.794;-1.066;2024-02-21T09:31:04;2.65;;;0.45;;
35558;SDS011;21661;50.794;-1.066;2024-02-21T09:33:30;3.38;;;0.70;;
35558;SDS011;21661;50.794;-1.066;2024-02-21T09:35:56;1.45;;;0.32;;
35558;SDS011;21661;50.794;-1.066;2024-02-21T09:38:21;1.58;;;0.38;;
35558;SDS011;21661;50.794;-1.066;2024-02-21T09:40:47;3.08;;;0.63;;
35558;SDS011;21661;50.794;-1.066;2024-02-21T09:43:18;1.83;;;0.40;;
35558;SDS011;21661;50.794;-1.066;2024-02-21T09:45:46;1.67;;;0.30;;
35558;SDS011;21661;50.794;-1.066;2024-02-21T09:48:19;1.55;;;0.20;;
35558;SDS011;21661;50.794;-1.066;2024-02-21T09:50:56;2.13;;;0.40;;
35558;SDS011;21661;50.794;-1.066;2024-02-21T09:53:24;1.90;;;0.30;;
35558;SDS011;21661;50.794;-1.066;2024-02-21T09:55:50;2.58;;;0.30;;
35558;SDS011;21661;50.794;-1.066;2024-02-21T09:58:16;2.00;;;0.35;;
35558;SDS011;21661;50.794;-1.066;2024-02-21T10:00:42;1.45;;;0.30;;
35558;SDS011;21661;50.794;-1.066;2024-02-21T10:03:08;2.55;;;0.35;;
35558;SDS011;21661;50.794;-1.066;2024-02-21T10:05:37;2.53;;;0.40;;
35558;SDS011;21661;50.794;-1.066;2024-02-21T10:08:03;1.65;;;0.30;;
35558;SDS011;21661;50.794;-1.066;2024-02-21T10:10:30;2.90;;;0.30;;
35558;SDS011;21661;50.794;-1.066;2024-02-21T10:13:05;2.00;;;0.45;;
35558;SDS011;21661;50.794;-1.066;2024-02-21T10:15:31;1.38;;;0.30;;
35558;SDS011;21661;50.794;-1.066;2024-02-21T10:18:00;2.83;;;0.40;;
35558;SDS011;21661;50.794;-1.066;2024-02-21T10:20:28;2.20;;;0.60;;
35558;SDS011;21661;50.794;-1.066;2024-02-21T10:23:03;2.80;;;0.50;;
35558;SDS011;21661;50.794;-1.066;2024-02-21T10:25:35;1.70;;;0.45;;
35558;SDS011;21661;50.794;-1.066;2024-02-21T10:28:06;2.40;;;0.30;;
35558;SDS011;21661;50.794;-1.066;2024-02-21T10:30:32;2.45;;;0.40;;
35558;SDS011;21661;50.794;-1.066;2024-02-21T10:32:58;2.92;;;0.52;;
35558;SDS011;21661;50.794;-1.066;2024-02-21T10:35:27;1.33;;;0.20;;
35558;SDS011;21661;50.794;-1.066;2024-02-21T10:37:56;1.83;;;0.30;;
35558;SDS011;21661;50.794;-1.066;2024-02-21T10:40:25;1.25;;;0.20;;
35558;SDS011;21661;50.794;-1.066;2024-02-21T10:42:55;1.85;;;0.30;;
35558;SDS011;21661;50.794;-1.066;2024-02-21T10:45:25;1.85;;;0.40;;
35558;SDS011;21661;50.794;-1.066;2024-02-21T10:47:58;2.35;;;0.40;;
35558;SDS011;21661;50.794;-1.066;2024-02-21T10:51:24;1.90;;;0.30;;
35558;SDS011;21661;50.794;-1.066;2024-02-21T10:56:32;1.02;;;0.30;;
35558;SDS011;21661;50.794;-1.066;2024-02-21T10:59:01;1.45;;;0.15;;
35558;SDS011;21661;50.794;-1.066;2024-02-21T11:01:29;1.10;;;0.10;;
35558;SDS011;21661;50.794;-1.066;2024-02-21T11:03:57;1.20;;;0.20;;
35558;SDS011;21661;50.794;-1.066;2024-02-21T11:06:26;1.10;;;0.20;;
35558;SDS011;21661;50.794;-1.066;2024-02-21T11:09:00;0.60;;;0.10;;
35558;SDS011;21661;50.794;-1.066;2024-02-21T11:11:32;1.08;;;0.20;;
35558;SDS011;21661;50.794;-1.066;2024-02-21T11:14:26;1.35;;;0.10;;
35558;SDS011;21661;50.794;-1.066;2024-02-21T11:16:53;1.25;;;0.15;;
35558;SDS011;21661;50.794;-1.066;2024-02-21T11:19:27;0.60;;;0.10;;
35558;SDS011;21661;50.794;-1.066;2024-02-21T11:21:54;1.65;;;0.20;;
35558;SDS011;21661;50.794;-1.066;2024-02-21T11:24:30;0.85;;;0.10;;
35558;SDS011;21661;50.794;-1.066;2024-02-21T11:32:11;1.73;;;0.25;;
35558;SDS011;21661;50.794;-1.066;2024-02-21T11:34:39;1.17;;;0.20;;
35558;SDS011;21661;50.794;-1.066;2024-02-21T11:37:12;0.90;;;0.10;;
35558;SDS011;21661;50.794;-1.066;2024-02-21T11:39:41;0.98;;;0.20;;
35558;SDS011;21661;50.794;-1.066;2024-02-21T11:42:07;1.58;;;0.30;;
35558;SDS011;21661;50.794;-1.066;2024-02-21T11:44:34;0.68;;;0.10;;
35558;SDS011;21661;50.794;-1.066;2024-02-21T11:47:04;0.98;;;0.13;;
35558;SDS011;21661;50.794;-1.066;2024-02-21T11:49:35;1.33;;;0.30;;
35558;SDS011;21661;50.794;-1.066;2024-02-21T11:52:05;1.45;;;0.13;;
35558;SDS011;21661;50.794;-1.066;2024-02-21T11:54:32;1.35;;;0.22;;
35558;SDS011;21661;50.794;-1.066;2024-02-21T11:56:59;1.58;;;0.28;;
35558;SDS011;21661;50.794;-1.066;2024-02-21T11:59:26;1.63;;;0.20;;
35558;SDS011;21661;50.794;-1.066;2024-02-21T12:01:52;0.30;;;0.10;;
35558;SDS011;21661;50.794;-1.066;2024-02-21T12:04:18;1.45;;;0.30;;
35558;SDS011;21661;50.794;-1.066;2024-02-21T12:06:45;1.08;;;0.20;;
35558;SDS011;21661;50.794;-1.066;2024-02-21T12:09:14;1.17;;;0.20;;
35558;SDS011;21661;50.794;-1.066;2024-02-21T12:11:43;1.50;;;0.35;;
35558;SDS011;21661;50.794;-1.066;2024-02-21T12:14:10;1.08;;;0.10;;
35558;SDS011;21661;50.794;-1.066;2024-02-21T12:16:36;1.02;;;0.20;;
35558;SDS011;21661;50.794;-1.066;2024-02-21T12:19:02;1.35;;;0.20;;
35558;SDS011;21661;50.794;-1.066;2024-02-21T12:21:35;1.35;;;0.20;;
35558;SDS011;21661;50.794;-1.066;2024-02-21T12:26:39;1.30;;;0.30;;
35558;SDS011;21661;50.794;-1.066;2024-02-21T12:29:05;0.60;;;0.15;;
35558;SDS011;21661;50.794;-1.066;2024-02-21T12:31:31;1.20;;;0.20;;
35558;SDS011;21661;50.794;-1.066;2024-02-21T12:33:57;0.85;;;0.15;;
35558;SDS011;21661;50.794;-1.066;2024-02-21T12:36:22;0.98;;;0.20;;
35558;SDS011;21661;50.794;-1.066;2024-02-21T12:38:48;1.63;;;0.22;;
35558;SDS011;21661;50.794;-1.066;2024-02-21T12:41:14;1.42;;;0.40;;
35558;SDS011;21661;50.794;-1.066;2024-02-21T12:43:40;2.25;;;0.30;;
35558;SDS011;21661;50.794;-1.066;2024-02-21T12:46:06;1.25;;;0.20;;
35558;SDS011;21661;50.794;-1.066;2024-02-21T12:48:34;0.80;;;0.10;;
35558;SDS011;21661;50.794;-1.066;2024-02-21T12:51:00;0.80;;;0.20;;
35558;SDS011;21661;50.794;-1.066;2024-02-21T12:53:25;0.77;;;0.22;;
35558;SDS011;21661;50.794;-1.066;2024-02-21T12:55:51;1.02;;;0.22;;
35558;SDS011;21661;50.794;-1.066;2024-02-21T12:58:16;0.80;;;0.17;;
35558;SDS011;21661;50.794;-1.066;2024-02-21T13:00:42;1.52;;;0.20;;
35558;SDS011;21661;50.794;-1.066;2024-02-21T13:03:08;1.08;;;0.20;;
35558;SDS011;21661;50.794;-1.066;2024-02-21T13:05:37;1.83;;;0.30;;
35558;SDS011;21661;50.794;-1.066;2024-02-21T13:08:04;1.10;;;0.20;;
35558;SDS011;21661;50.794;-1.066;2024-02-21T13:10:31;1.50;;;0.28;;
35558;SDS011;21661;50.794;-1.066;2024-02-21T13:12:58;1.80;;;0.30;;
35558;SDS011;21661;50.794;-1.066;2024-02-21T13:15:24;0.55;;;0.10;;
35558;SDS011;21661;50.794;-1.066;2024-02-21T13:17:49;0.88;;;0.20;;
35558;SDS011;21661;50.794;-1.066;2024-02-21T13:20:15;1.90;;;0.20;;
35558;SDS011;21661;50.794;-1.066;2024-02-21T13:22:41;1.67;;;0.20;;
35558;SDS011;21661;50.794;-1.066;2024-02-21T13:25:06;1.35;;;0.15;;
35558;SDS011;21661;50.794;-1.066;2024-02-21T13:27:34;1.83;;;0.20;;
35558;SDS011;21661;50.794;-1.066;2024-02-21T13:30:00;1.45;;;0.20;;
35558;SDS011;21661;50.794;-1.066;2024-02-21T13:32:30;1.15;;;0.10;;
35558;SDS011;21661;50.794;-1.066;2024-02-21T13:34:56;0.82;;;0.15;;
35558;SDS011;21661;50.794;-1.066;2024-02-21T13:37:24;1.00;;;0.20;;
35558;SDS011;21661;50.794;-1.066;2024-02-21T13:39:51;1.02;;;0.25;;
35558;SDS011;21661;50.794;-1.066;2024-02-21T13:42:18;1.13;;;0.20;;
35558;SDS011;21661;50.794;-1.066;2024-02-21T13:44:44;1.55;;;0.30;;
35558;SDS011;21661;50.794;-1.066;2024-02-21T13:47:10;0.85;;;0.20;;
35558;SDS011;21661;50.794;-1.066;2024-02-21T13:49:40;1.02;;;0.20;;
35558;SDS011;21661;50.794;-1.066;2024-02-21T13:52:06;1.10;;;0.20;;
35558;SDS011;21661;50.794;-1.066;2024-02-21T13:54:31;1.50;;;0.25;;
35558;SDS011;21661;50.794;-1.066;2024-02-21T13:56:57;2.03;;;0.20;;
35558;SDS011;21661;50.794;-1.066;2024-02-21T13:59:23;1.38;;;0.30;;
35558;SDS011;21661;50.794;-1.066;2024-02-21T14:01:48;1.95;;;0.20;;
35558;SDS011;21661;50.794;-1.066;2024-02-21T14:04:14;1.90;;;0.40;;
35558;SDS011;21661;50.794;-1.066;2024-02-21T14:06:39;1.05;;;0.20;;
35558;SDS011;21661;50.794;-1.066;2024-02-21T14:09:08;0.90;;;0.20;;
35558;SDS011;21661;50.794;-1.066;2024-02-21T14:11:34;1.73;;;0.22;;
35558;SDS011;21661;50.794;-1.066;2024-02-21T14:14:00;0.90;;;0.10;;
35558;SDS011;21661;50.794;-1.066;2024-02-21T14:16:26;0.98;;;0.20;;
35558;SDS011;21661;50.794;-1.066;2024-02-21T14:18:52;1.52;;;0.20;;
35558;SDS011;21661;50.794;-1.066;2024-02-21T14:21:19;1.13;;;0.20;;
35558;SDS011;21661;50.794;-1.066;2024-02-21T14:23:44;0.95;;;0.10;;
35558;SDS011;21661;50.794;-1.066;2024-02-21T14:26:10;1.08;;;0.10;;
35558;SDS011;21661;50.794;-1.066;2024-02-21T14:28:37;1.35;;;0.22;;
35558;SDS011;21661;50.794;-1.066;2024-02-21T14:31:02;1.00;;;0.10;;
35558;SDS011;21661;50.794;-1.066;2024-02-21T14:33:30;0.75;;;0.17;;
35558;SDS011;21661;50.794;-1.066;2024-02-21T14:35:56;0.55;;;0.10;;
35558;SDS011;21661;50.794;-1.066;2024-02-21T14:38:22;1.20;;;0.17;;
35558;SDS011;21661;50.794;-1.066;2024-02-21T14:40:48;0.98;;;0.20;;